Time;durP1;ratioP1;P1;durP2;ratioP2;P2;SDS_P1;SDS_P2;PMS_P1;PMS_P2;Temp;Humidity;BMP_temperature;BMP_pressure;BME280_temperature;BME280_humidity;BME280_pressure;Samples;Min_cycle;Max_cycle;Signal;HPM_P1;HPM_P2
2023/08/15 00:01:32;;;;;;;1.60;1.60;;;23.90;76.90;;;;;;5027724;28;43518;-68
2023/08/15 00:04:00;;;;;;;1.60;1.60;;;24.00;76.60;;;;;;5029146;28;43387;-68
2023/08/15 00:06:30;;;;;;;1.70;1.70;;;24.00;76.30;;;;;;5028538;28;43792;-68
2023/08/15 00:09:00;;;;;;;1.60;1.60;;;24.00;76.30;;;;;;5028016;28;44045;-67
2023/08/15 00:11:28;;;;;;;1.70;1.70;;;24.00;76.40;;;;;;5028490;28;43563;-67
2023/08/15 00:13:57;;;;;;;1.50;1.50;;;23.90;76.70;;;;;;5028870;28;43994;-67
2023/08/15 00:16:25;;;;;;;1.40;1.40;;;23.90;76.80;;;;;;5028015;28;43612;-67
2023/08/15 00:18:53;;;;;;;1.53;1.53;;;23.90;76.80;;;;;;5025965;28;44573;-68
2023/08/15 00:21:21;;;;;;;1.70;1.70;;;23.90;76.90;;;;;;5028552;28;43384;-68
2023/08/15 00:23:50;;;;;;;1.50;1.50;;;23.80;77.00;;;;;;5028289;28;43455;-67
2023/08/15 00:26:18;;;;;;;1.70;1.70;;;23.70;77.10;;;;;;5028101;28;43865;-66
2023/08/15 00:28:46;;;;;;;1.47;1.47;;;23.80;77.20;;;;;;5028037;28;43340;-67
2023/08/15 00:31:14;;;;;;;1.60;1.60;;;23.70;77.10;;;;;;5027606;28;43613;-67
2023/08/15 00:33:42;;;;;;;1.70;1.60;;;23.70;77.20;;;;;;5027487;28;43812;-68
2023/08/15 00:36:10;;;;;;;1.60;1.60;;;23.70;77.40;;;;;;5028992;28;43752;-66
2023/08/15 00:38:39;;;;;;;1.57;1.53;;;23.70;77.40;;;;;;5026252;28;44515;-67
2023/08/15 00:41:08;;;;;;;1.80;1.80;;;23.80;77.00;;;;;;5027871;28;43416;-67
2023/08/15 00:43:36;;;;;;;1.63;1.63;;;23.90;76.60;;;;;;5027316;28;43503;-69
2023/08/15 00:46:04;;;;;;;1.60;1.60;;;24.00;76.40;;;;;;5026257;28;43595;-67
2023/08/15 00:48:32;;;;;;;1.60;1.60;;;24.00;76.30;;;;;;5027311;28;43447;-67
2023/08/15 00:51:01;;;;;;;1.30;1.30;;;24.00;76.40;;;;;;5030649;28;43475;-68
2023/08/15 00:53:30;;;;;;;1.70;1.70;;;23.90;76.70;;;;;;5031075;28;43638;-67
2023/08/15 00:55:58;;;;;;;1.80;1.80;;;23.90;76.90;;;;;;5031542;28;43606;-67
2023/08/15 00:58:28;;;;;;;1.70;1.70;;;23.90;76.90;;;;;;5030608;28;44626;-67
2023/08/15 01:00:56;;;;;;;1.50;1.50;;;23.80;76.90;;;;;;5031989;28;44220;-66
2023/08/15 01:03:24;;;;;;;1.70;1.60;;;23.80;77.00;;;;;;5074557;22;43707;-70
2023/08/15 01:05:53;;;;;;;1.57;1.57;;;23.70;77.10;;;;;;5083548;27;45351;-70
2023/08/15 01:08:21;;;;;;;1.60;1.60;;;23.70;77.10;;;;;;5085321;27;44586;-69
2023/08/15 01:10:49;;;;;;;1.60;1.60;;;23.70;77.10;;;;;;5071320;28;43406;-69
2023/08/15 01:13:22;;;;;;;1.60;1.60;;;23.70;77.30;;;;;;5071177;28;43532;-69
2023/08/15 01:15:52;;;;;;;1.40;1.40;;;23.70;78.20;;;;;;5069431;28;45742;-69
2023/08/15 01:18:24;;;;;;;1.40;1.40;;;23.70;77.40;;;;;;5070139;28;44659;-69
2023/08/15 01:20:52;;;;;;;1.43;1.43;;;23.70;77.40;;;;;;5069666;28;43521;-71
2023/08/15 01:23:24;;;;;;;1.40;1.40;;;23.60;77.20;;;;;;5069231;28;43480;-70
2023/08/15 01:25:54;;;;;;;1.60;1.60;;;23.60;77.50;;;;;;5067633;28;46116;-71
2023/08/15 01:28:22;;;;;;;1.60;1.60;;;23.70;77.50;;;;;;5071006;28;43797;-70
2023/08/15 01:31:07;;;;;;;1.90;1.40;;;23.80;77.90;;;;;;5087931;27;43503;-70
2023/08/15 01:33:37;;;;;;;1.70;1.70;;;23.90;76.70;;;;;;5088792;27;43455;-69
2023/08/15 01:36:06;;;;;;;1.70;1.70;;;24.10;76.30;;;;;;5070206;28;43726;-69
2023/08/15 01:38:39;;;;;;;1.47;1.47;;;24.10;76.10;;;;;;5070864;28;45138;-69
2023/08/15 01:41:09;;;;;;;1.60;1.60;;;24.10;76.10;;;;;;5067530;28;43462;-71
2023/08/15 01:43:37;;;;;;;1.53;1.53;;;24.00;76.30;;;;;;5069043;28;44272;-72
2023/08/15 01:46:06;;;;;;;1.50;1.50;;;24.00;76.50;;;;;;5086146;27;46037;-70
2023/08/15 01:48:39;;;;;;;1.50;1.50;;;24.00;76.50;;;;;;5070435;28;43415;-70
2023/08/15 01:51:07;;;;;;;1.53;1.53;;;23.90;76.60;;;;;;5069260;28;43474;-69
2023/08/15 01:53:35;;;;;;;1.60;1.60;;;23.90;76.70;;;;;;5069571;28;43455;-70
2023/08/15 01:56:05;;;;;;;1.60;1.60;;;23.80;77.00;;;;;;5070514;27;43706;-70
2023/08/15 01:58:34;;;;;;;1.57;1.47;;;23.80;77.00;;;;;;5067182;28;45867;-69
2023/08/15 02:01:02;;;;;;;1.40;1.40;;;23.80;77.00;;;;;;5068424;28;43526;-69
2023/08/15 02:03:31;;;;;;;1.60;1.60;;;23.80;77.00;;;;;;5069215;27;43489;-72
2023/08/15 02:06:00;;;;;;;1.80;1.80;;;23.70;77.30;;;;;;5069988;28;44063;-69
2023/08/15 02:08:28;;;;;;;1.50;1.50;;;23.70;77.40;;;;;;5070344;28;43487;-69
2023/08/15 02:10:55;;;;;;;1.40;1.40;;;23.80;77.20;;;;;;5069457;28;43406;-70
2023/08/15 02:13:25;;;;;;;1.50;1.50;;;23.90;76.80;;;;;;5067616;28;43491;-70
2023/08/15 02:15:55;;;;;;;1.30;1.30;;;24.00;76.40;;;;;;5066909;28;44927;-70
2023/08/15 02:18:23;;;;;;;1.50;1.50;;;24.00;76.10;;;;;;5068430;28;44139;-70
2023/08/15 02:20:51;;;;;;;1.50;1.50;;;24.00;76.20;;;;;;5070327;28;43524;-69
2023/08/15 02:23:19;;;;;;;1.60;1.60;;;24.00;76.30;;;;;;5070478;28;44106;-69
2023/08/15 02:25:47;;;;;;;1.30;1.30;;;23.90;76.60;;;;;;5067990;28;45663;-72
2023/08/15 02:28:15;;;;;;;1.40;1.40;;;23.90;76.70;;;;;;5070801;28;43985;-69
2023/08/15 02:30:43;;;;;;;1.33;1.33;;;23.90;76.70;;;;;;5069583;28;43478;-69
2023/08/15 02:33:12;;;;;;;1.47;1.47;;;23.90;76.90;;;;;;5070244;28;43396;-69
2023/08/15 02:35:41;;;;;;;1.20;1.20;;;23.80;77.00;;;;;;5066824;28;45821;-69
2023/08/15 02:38:09;;;;;;;1.40;1.40;;;23.80;77.10;;;;;;5069133;28;43454;-73
2023/08/15 02:40:38;;;;;;;1.20;1.20;;;23.80;77.10;;;;;;5066032;28;43502;-73
2023/08/15 02:43:06;;;;;;;1.40;1.40;;;23.70;77.00;;;;;;5069585;28;43612;-73
2023/08/15 02:45:34;;;;;;;1.30;1.30;;;23.70;77.10;;;;;;5068222;28;43600;-73
2023/08/15 02:48:02;;;;;;;1.30;1.30;;;23.70;77.40;;;;;;5069193;28;43434;-74
2023/08/15 02:50:31;;;;;;;1.40;1.40;;;23.70;77.40;;;;;;5070152;28;43518;-75
2023/08/15 02:53:02;;;;;;;1.30;1.30;;;23.70;77.40;;;;;;5067825;28;44066;-74
2023/08/15 02:55:30;;;;;;;1.27;1.27;;;23.70;77.30;;;;;;5067685;28;44761;-75
2023/08/15 02:57:58;;;;;;;1.37;1.37;;;23.70;77.50;;;;;;5068032;28;44360;-74
2023/08/15 03:00:26;;;;;;;1.57;1.57;;;23.60;77.50;;;;;;5070262;28;44046;-74
2023/08/15 03:02:54;;;;;;;1.50;1.50;;;23.70;77.30;;;;;;5066746;28;43453;-72
2023/08/15 03:05:22;;;;;;;1.40;1.40;;;23.90;77.00;;;;;;5067582;28;45648;-75
2023/08/15 03:07:51;;;;;;;1.50;1.50;;;24.00;76.50;;;;;;5066107;28;44709;-74
2023/08/15 03:10:19;;;;;;;1.50;1.50;;;24.10;76.10;;;;;;5068040;28;43422;-75
2023/08/15 03:12:48;;;;;;;1.30;1.30;;;24.10;76.00;;;;;;5068522;28;43479;-75
2023/08/15 03:15:16;;;;;;;1.40;1.40;;;24.10;76.10;;;;;;5068783;28;44018;-75
2023/08/15 03:17:44;;;;;;;1.33;1.33;;;24.00;76.30;;;;;;5067434;28;44239;-75
2023/08/15 03:20:13;;;;;;;1.43;1.43;;;24.00;76.60;;;;;;5068832;28;43508;-75
2023/08/15 03:22:43;;;;;;;1.50;1.50;;;23.90;76.50;;;;;;5067809;28;43528;-74
2023/08/15 03:25:13;;;;;;;1.60;1.60;;;23.90;76.60;;;;;;5065379;28;46646;-74
2023/08/15 03:27:41;;;;;;;1.50;1.50;;;23.90;76.80;;;;;;5085075;27;43625;-71
2023/08/15 03:30:10;;;;;;;1.90;1.80;;;23.80;77.00;;;;;;5068274;28;43432;-70
2023/08/15 03:32:39;;;;;;;1.57;1.57;;;23.80;77.00;;;;;;5066547;28;43612;-71
2023/08/15 03:35:08;;;;;;;2.03;1.93;;;23.80;77.00;;;;;;5065294;28;46024;-71
2023/08/15 03:37:36;;;;;;;2.97;2.50;;;23.80;77.00;;;;;;5067852;28;43454;-71
2023/08/15 03:40:05;;;;;;;2.60;2.30;;;23.70;77.30;;;;;;5067283;28;43487;-71
2023/08/15 03:42:35;;;;;;;2.70;2.47;;;23.70;77.30;;;;;;5068496;28;43893;-71
2023/08/15 03:45:06;;;;;;;2.63;2.30;;;23.80;77.10;;;;;;5068427;28;43705;-71
2023/08/15 03:47:34;;;;;;;3.50;2.97;;;23.90;76.60;;;;;;5065523;28;44811;-71
2023/08/15 03:50:02;;;;;;;3.63;2.70;;;24.00;76.40;;;;;;5084498;27;43532;-70
2023/08/15 03:52:32;;;;;;;2.73;2.53;;;24.00;76.30;;;;;;5069384;28;43521;-71
2023/08/15 03:55:01;;;;;;;3.23;2.70;;;24.00;76.30;;;;;;5068737;28;45730;-70
2023/08/15 03:57:29;;;;;;;3.97;2.80;;;23.90;77.20;;;;;;5084104;27;43510;-70
2023/08/15 04:00:00;;;;;;;3.23;2.67;;;23.90;76.80;;;;;;5066912;28;43385;-70
2023/08/15 04:02:28;;;;;;;2.50;2.40;;;23.90;76.90;;;;;;5067887;28;44047;-71
2023/08/15 04:04:56;;;;;;;4.10;2.97;;;23.90;76.90;;;;;;5066755;28;45000;-72
2023/08/15 04:07:25;;;;;;;3.87;3.23;;;23.80;76.80;;;;;;5065388;28;44799;-71
2023/08/15 04:09:53;;;;;;;4.97;3.50;;;23.80;77.20;;;;;;5065976;28;43558;-71
2023/08/15 04:12:21;;;;;;;2.93;2.67;;;23.70;77.10;;;;;;5065786;28;43475;-71
2023/08/15 04:14:50;;;;;;;3.80;3.33;;;23.80;77.20;;;;;;5066391;28;45933;-71
2023/08/15 04:17:19;;;;;;;3.57;3.00;;;23.70;77.10;;;;;;5068139;28;43533;-70
2023/08/15 04:19:47;;;;;;;5.17;3.30;;;23.70;78.00;;;;;;5067037;28;43469;-70
2023/08/15 04:22:17;;;;;;;3.40;3.10;;;23.70;77.50;;;;;;5066583;28;43992;-70
2023/08/15 04:24:45;;;;;;;6.77;3.87;;;23.70;78.00;;;;;;5064724;28;45402;-71
2023/08/15 04:27:13;;;;;;;5.33;3.83;;;23.80;76.90;;;;;;5068079;28;43374;-71
2023/08/15 04:29:41;;;;;;;3.87;3.20;;;23.90;76.50;;;;;;5066048;28;43430;-71
2023/08/15 04:32:09;;;;;;;4.40;3.60;;;24.00;76.30;;;;;;5066277;28;43498;-71
2023/08/15 04:34:38;;;;;;;4.20;3.37;;;24.00;76.10;;;;;;5065525;28;43607;-71
2023/08/15 04:37:06;;;;;;;3.97;3.33;;;24.00;76.20;;;;;;5065015;28;44738;-75
2023/08/15 04:39:35;;;;;;;4.20;3.60;;;23.90;76.50;;;;;;5067151;28;43434;-75
2023/08/15 04:42:04;;;;;;;5.43;3.53;;;23.90;76.60;;;;;;5066622;28;43680;-74
2023/08/15 04:44:32;;;;;;;4.60;3.37;;;23.90;76.70;;;;;;5066218;28;45684;-75
2023/08/15 04:47:00;;;;;;;4.00;3.53;;;23.80;76.70;;;;;;5065380;28;44391;-75
2023/08/15 04:49:28;;;;;;;5.17;3.60;;;23.80;76.80;;;;;;5067738;28;43415;-75
2023/08/15 04:51:57;;;;;;;4.87;3.30;;;23.70;77.00;;;;;;5068544;28;43451;-75
2023/08/15 04:54:25;;;;;;;3.80;3.50;;;23.80;77.10;;;;;;5065240;28;43847;-75
2023/08/15 04:56:53;;;;;;;4.40;3.60;;;23.70;77.00;;;;;;5067360;28;45178;-74
2023/08/15 04:59:21;;;;;;;3.73;3.40;;;23.70;77.10;;;;;;5065523;28;43391;-75
2023/08/15 05:01:49;;;;;;;4.13;3.70;;;23.70;77.40;;;;;;5066890;28;43978;-75
2023/08/15 05:04:17;;;;;;;4.27;3.20;;;23.70;77.40;;;;;;5066300;28;44798;-75
2023/08/15 05:06:47;;;;;;;4.30;3.30;;;23.80;77.30;;;;;;5066002;28;44665;-74
2023/08/15 05:09:17;;;;;;;4.20;3.30;;;23.90;76.80;;;;;;5065045;28;44067;-74
2023/08/15 05:11:46;;;;;;;4.07;3.63;;;24.00;76.50;;;;;;5066709;28;43686;-75
2023/08/15 05:14:15;;;;;;;3.90;3.40;;;24.00;76.40;;;;;;5065291;28;45684;-74
2023/08/15 05:16:43;;;;;;;3.70;3.47;;;24.00;76.40;;;;;;5065054;28;43987;-74
2023/08/15 05:19:11;;;;;;;3.30;3.10;;;23.90;76.50;;;;;;5065588;28;43519;-74
2023/08/15 05:21:40;;;;;;;3.30;3.00;;;23.90;76.80;;;;;;5063573;28;44525;-74
2023/08/15 05:24:08;;;;;;;3.80;3.47;;;23.90;76.80;;;;;;5065167;28;45671;-74
2023/08/15 05:26:38;;;;;;;3.53;3.23;;;23.80;76.80;;;;;;5065624;28;44961;-75
2023/08/15 05:29:06;;;;;;;5.57;4.00;;;23.80;76.90;;;;;;5066915;28;43472;-75
2023/08/15 05:31:34;;;;;;;3.63;3.30;;;23.70;77.20;;;;;;5066369;28;43578;-75
2023/08/15 05:34:02;;;;;;;3.70;3.37;;;23.70;77.20;;;;;;5066548;28;46167;-75
2023/08/15 05:36:31;;;;;;;3.50;3.20;;;23.70;77.90;;;;;;5066157;28;43490;-75
2023/08/15 05:39:04;;;;;;;3.33;3.07;;;23.70;77.10;;;;;;5069363;28;43446;-74
2023/08/15 05:41:33;;;;;;;3.80;3.40;;;23.70;77.40;;;;;;5087204;27;43550;-75
2023/08/15 05:44:03;;;;;;;3.83;3.53;;;23.70;77.60;;;;;;5069035;28;43958;-75
2023/08/15 05:46:31;;;;;;;3.50;3.20;;;23.80;77.40;;;;;;5068367;28;44713;-75
2023/08/15 05:48:59;;;;;;;3.73;3.43;;;23.90;77.10;;;;;;5069725;28;44433;-75
2023/08/15 05:51:27;;;;;;;3.67;3.20;;;24.00;76.70;;;;;;5071881;28;43418;-75
2023/08/15 05:53:55;;;;;;;4.93;3.50;;;24.00;76.40;;;;;;5065310;28;45687;-74
2023/08/15 05:56:23;;;;;;;3.53;3.23;;;24.00;76.40;;;;;;5068681;28;44084;-75
2023/08/15 05:58:51;;;;;;;3.90;3.60;;;24.00;76.50;;;;;;5069675;28;43448;-75
2023/08/15 06:01:21;;;;;;;3.93;3.30;;;23.90;76.70;;;;;;5069215;28;43547;-75
2023/08/15 06:03:49;;;;;;;4.60;3.23;;;23.90;76.90;;;;;;5069523;28;43699;-75
2023/08/15 06:06:22;;;;;;;3.90;3.50;;;23.90;76.90;;;;;;5070141;28;43477;-74
2023/08/15 06:08:50;;;;;;;3.90;3.50;;;23.80;76.80;;;;;;5070720;28;43406;-73
2023/08/15 06:11:17;;;;;;;3.37;3.13;;;23.80;77.10;;;;;;5069454;28;43379;-73
2023/08/15 06:13:47;;;;;;;3.43;3.10;;;23.70;77.20;;;;;;5070990;28;43975;-75
2023/08/15 06:16:14;;;;;;;3.80;3.50;;;23.70;77.10;;;;;;5068509;28;44425;-73
2023/08/15 06:18:44;;;;;;;2.83;2.73;;;23.70;77.10;;;;;;5069140;28;43534;-73
2023/08/15 06:21:12;;;;;;;3.40;3.20;;;23.70;77.10;;;;;;5068061;28;44458;-73
2023/08/15 06:23:40;;;;;;;3.20;3.00;;;23.70;77.40;;;;;;5067975;28;45675;-73
2023/08/15 06:26:08;;;;;;;3.53;3.17;;;23.70;77.50;;;;;;5068760;28;44635;-73
2023/08/15 06:28:36;;;;;;;3.57;3.27;;;23.80;77.30;;;;;;5084753;27;43768;-74
2023/08/15 06:31:04;;;;;;;3.40;3.20;;;23.90;76.90;;;;;;5070207;28;44034;-74
2023/08/15 06:33:32;;;;;;;4.20;3.27;;;24.00;76.50;;;;;;5067917;28;46049;-74
2023/08/15 06:36:01;;;;;;;3.53;3.23;;;24.00;76.40;;;;;;5068950;28;44018;-73
2023/08/15 06:38:29;;;;;;;3.10;2.90;;;24.00;76.30;;;;;;5070379;28;43424;-73
2023/08/15 06:40:58;;;;;;;3.07;2.83;;;24.00;76.40;;;;;;5068593;28;43589;-73
2023/08/15 06:43:26;;;;;;;3.30;3.00;;;23.90;76.70;;;;;;5068670;28;43749;-73
2023/08/15 06:45:54;;;;;;;3.23;2.77;;;23.90;76.90;;;;;;5069506;28;43406;-73
2023/08/15 06:48:22;;;;;;;3.03;2.83;;;23.80;76.80;;;;;;5069078;28;43578;-73
2023/08/15 06:50:50;;;;;;;3.13;2.93;;;23.80;76.80;;;;;;5068398;28;43615;-73
2023/08/15 06:53:19;;;;;;;3.33;3.03;;;23.70;77.10;;;;;;5069214;28;43616;-74
2023/08/15 06:55:49;;;;;;;3.13;2.93;;;23.70;77.20;;;;;;5068289;28;44304;-74
2023/08/15 06:58:17;;;;;;;3.07;2.87;;;23.70;77.20;;;;;;5067935;28;44461;-69
2023/08/15 07:00:45;;;;;;;3.23;2.93;;;23.70;77.10;;;;;;5069535;28;43521;-69
2023/08/15 07:03:14;;;;;;;3.13;2.83;;;23.70;77.30;;;;;;5066383;28;44539;-69
2023/08/15 07:05:42;;;;;;;2.87;2.67;;;23.70;77.50;;;;;;5086797;27;45023;-69
2023/08/15 07:08:10;;;;;;;3.20;3.00;;;23.70;77.40;;;;;;5068558;28;43392;-70
2023/08/15 07:10:39;;;;;;;3.00;2.90;;;23.70;77.40;;;;;;5068368;28;43430;-71
2023/08/15 07:13:07;;;;;;;2.73;2.60;;;23.60;77.20;;;;;;5070086;28;43714;-70
2023/08/15 07:15:35;;;;;;;3.20;2.93;;;23.60;77.50;;;;;;5069190;28;43516;-71
2023/08/15 07:18:03;;;;;;;3.00;2.80;;;23.70;77.60;;;;;;5071712;28;43468;-71
2023/08/15 07:20:31;;;;;;;3.07;2.90;;;23.70;77.30;;;;;;5069450;28;43632;-70
2023/08/15 07:23:01;;;;;;;3.27;3.07;;;23.90;76.90;;;;;;5069207;28;45517;-70
2023/08/15 07:25:29;;;;;;;2.93;2.77;;;24.00;76.50;;;;;;5068280;28;44687;-70
2023/08/15 07:27:58;;;;;;;2.83;2.73;;;24.00;76.20;;;;;;5069966;28;44056;-69
2023/08/15 07:30:26;;;;;;;2.63;2.53;;;24.10;76.30;;;;;;5069386;28;43578;-70
2023/08/15 07:32:55;;;;;;;2.50;2.40;;;24.00;76.30;;;;;;5067160;28;45653;-71
2023/08/15 07:35:23;;;;;;;3.07;2.87;;;23.90;76.50;;;;;;5067820;28;43561;-70
2023/08/15 07:37:51;;;;;;;2.60;2.40;;;24.00;76.70;;;;;;5067454;28;43399;-69
2023/08/15 07:40:20;;;;;;;2.63;2.53;;;23.90;76.60;;;;;;5068400;28;43482;-69
2023/08/15 07:42:49;;;;;;;2.60;2.40;;;23.90;76.70;;;;;;5066651;28;46754;-69
2023/08/15 07:45:19;;;;;;;2.90;2.70;;;23.80;76.90;;;;;;5068359;28;45099;-69
2023/08/15 07:47:51;;;;;;;3.20;3.00;;;23.80;77.10;;;;;;5069830;28;43984;-69
2023/08/15 07:50:21;;;;;;;3.10;2.90;;;23.80;77.10;;;;;;5069730;28;43465;-69
2023/08/15 07:52:49;;;;;;;3.30;3.10;;;23.70;77.00;;;;;;5067909;28;44900;-70
2023/08/15 07:55:17;;;;;;;2.90;2.70;;;23.70;77.30;;;;;;5066371;28;44422;-70
2023/08/15 07:57:45;;;;;;;2.97;2.77;;;23.70;77.40;;;;;;5069660;28;43570;-70
2023/08/15 08:00:14;;;;;;;3.17;2.70;;;23.80;77.30;;;;;;5069492;28;43517;-71
2023/08/15 08:02:45;;;;;;;2.37;2.27;;;23.90;77.00;;;;;;5069054;28;43992;-70
2023/08/15 08:05:15;;;;;;;2.37;2.27;;;24.00;76.60;;;;;;5067966;28;44901;-71
2023/08/15 08:07:44;;;;;;;2.53;2.43;;;24.00;76.40;;;;;;5074620;28;43479;-72
2023/08/15 08:10:12;;;;;;;2.70;2.60;;;24.00;76.30;;;;;;5075871;28;43538;-72
2023/08/15 08:12:40;;;;;;;3.00;2.90;;;24.00;76.40;;;;;;5075993;28;44962;-73
2023/08/15 08:15:09;;;;;;;2.77;2.67;;;23.90;76.60;;;;;;5076528;28;43423;-72
2023/08/15 08:17:37;;;;;;;2.47;2.37;;;23.90;76.90;;;;;;5077010;28;43471;-73
2023/08/15 08:20:11;;;;;;;2.20;2.10;;;23.80;76.80;;;;;;5078566;28;43485;-72
2023/08/15 08:22:41;;;;;;;2.80;2.70;;;23.80;76.80;;;;;;5077040;28;43615;-72
2023/08/15 08:25:14;;;;;;;2.50;2.40;;;23.80;77.10;;;;;;5077078;28;43806;-72
2023/08/15 08:27:43;;;;;;;2.30;2.20;;;23.70;77.20;;;;;;5071691;28;43475;-73
2023/08/15 08:30:12;;;;;;;2.40;2.30;;;23.70;77.10;;;;;;5076013;28;43450;-72
2023/08/15 08:32:40;;;;;;;2.63;2.53;;;23.70;77.10;;;;;;5077216;28;43607;-72
2023/08/15 08:35:11;;;;;;;2.90;2.80;;;23.70;77.30;;;;;;5077867;28;43368;-73
2023/08/15 08:37:39;;;;;;;2.40;2.30;;;23.70;77.50;;;;;;5077555;28;43465;-72
2023/08/15 08:40:08;;;;;;;2.37;2.27;;;23.70;77.40;;;;;;5076727;28;43678;-72
2023/08/15 08:42:36;;;;;;;2.57;2.40;;;23.80;77.00;;;;;;5077847;28;43695;-72
2023/08/15 08:45:05;;;;;;;2.70;2.60;;;23.90;76.60;;;;;;5075658;28;44907;-73
2023/08/15 08:47:34;;;;;;;2.60;2.50;;;24.00;76.50;;;;;;5092922;27;44667;-72
2023/08/15 08:50:02;;;;;;;2.10;2.00;;;24.00;76.40;;;;;;5075854;28;43457;-73
2023/08/15 08:52:31;;;;;;;2.40;2.30;;;24.00;76.40;;;;;;5076225;28;43712;-72
2023/08/15 08:54:59;;;;;;;2.50;2.40;;;23.90;76.60;;;;;;5091668;27;44408;-72
2023/08/15 08:57:29;;;;;;;2.67;2.57;;;23.90;76.90;;;;;;5076541;28;43457;-72
2023/08/15 08:59:57;;;;;;;2.20;2.10;;;23.80;76.30;;;;;;5077727;28;43442;-72
2023/08/15 09:02:25;;;;;;;2.40;2.30;;;23.80;76.90;;;;;;5075475;28;44005;-72
2023/08/15 09:04:54;;;;;;;2.50;2.40;;;23.70;77.00;;;;;;5075184;28;43475;-72
2023/08/15 09:07:22;;;;;;;2.57;2.43;;;23.70;77.30;;;;;;5075416;28;43406;-72
2023/08/15 09:09:51;;;;;;;2.50;2.37;;;23.70;77.20;;;;;;5075864;28;43675;-72
2023/08/15 09:12:33;;;;;;;2.43;2.33;;;23.90;77.00;;;;;;5076495;28;43627;-72
2023/08/15 09:15:01;;;;;;;2.33;2.13;;;24.00;76.70;;;;;;5080928;28;43472;-73
2023/08/15 09:17:29;;;;;;;2.33;2.23;;;24.00;76.50;;;;;;5074756;28;43506;-72
2023/08/15 09:19:57;;;;;;;2.13;2.10;;;24.00;76.50;;;;;;5067838;28;44079;-71
2023/08/15 09:22:25;;;;;;;2.00;1.90;;;23.90;76.50;;;;;;5069136;28;46422;-71
2023/08/15 09:24:55;;;;;;;2.37;2.27;;;23.90;76.90;;;;;;5069489;28;43555;-73
2023/08/15 09:27:23;;;;;;;2.60;2.50;;;23.80;77.00;;;;;;5068441;28;43436;-71
2023/08/15 09:29:51;;;;;;;2.40;2.30;;;23.80;77.00;;;;;;5069615;28;43432;-70
2023/08/15 09:32:19;;;;;;;2.27;2.17;;;23.70;76.90;;;;;;5069834;28;43649;-71
2023/08/15 09:34:47;;;;;;;2.03;2.00;;;23.70;77.80;;;;;;5070552;28;43347;-71
2023/08/15 09:37:15;;;;;;;2.10;2.00;;;23.70;77.40;;;;;;5069810;28;43485;-71
2023/08/15 09:39:43;;;;;;;2.20;2.10;;;23.70;77.40;;;;;;5070140;28;43484;-71
2023/08/15 09:42:13;;;;;;;2.20;2.10;;;23.70;77.40;;;;;;5070015;28;43606;-71
2023/08/15 09:44:41;;;;;;;2.60;2.50;;;23.60;77.20;;;;;;5069073;28;44522;-71
2023/08/15 09:47:09;;;;;;;2.30;2.20;;;23.60;77.60;;;;;;5068488;28;43477;-72
2023/08/15 09:49:37;;;;;;;2.30;2.20;;;23.60;77.60;;;;;;5069233;28;43965;-71
2023/08/15 09:52:06;;;;;;;2.30;2.30;;;23.70;77.40;;;;;;5069343;28;43611;-70
2023/08/15 09:54:33;;;;;;;2.50;2.40;;;23.80;77.00;;;;;;5072681;28;43494;-71
2023/08/15 09:57:01;;;;;;;2.33;2.23;;;23.90;76.60;;;;;;5069394;28;43440;-71
2023/08/15 09:59:31;;;;;;;2.23;2.13;;;24.00;76.50;;;;;;5067962;28;43460;-70
2023/08/15 10:01:59;;;;;;;2.20;2.10;;;23.90;76.40;;;;;;5068448;28;45299;-71
2023/08/15 10:04:27;;;;;;;2.10;2.00;;;23.90;76.60;;;;;;5067909;28;44424;-71
2023/08/15 10:06:55;;;;;;;2.30;2.20;;;23.90;76.90;;;;;;5069148;28;43698;-71
2023/08/15 10:09:24;;;;;;;2.10;2.00;;;23.80;76.90;;;;;;5067988;28;43566;-70
2023/08/15 10:11:52;;;;;;;2.63;2.53;;;23.80;77.00;;;;;;5069917;28;43611;-71
2023/08/15 10:14:19;;;;;;;2.27;2.20;;;23.70;76.90;;;;;;5069654;28;43518;-70
2023/08/15 10:16:49;;;;;;;1.97;1.97;;;23.70;77.20;;;;;;5067039;28;43830;-71
2023/08/15 10:19:18;;;;;;;2.20;2.10;;;23.70;77.40;;;;;;5071043;28;43427;-71
2023/08/15 10:21:50;;;;;;;2.47;2.37;;;23.70;77.40;;;;;;5070353;28;43754;-72
2023/08/15 10:24:18;;;;;;;2.03;2.03;;;23.70;77.40;;;;;;5070506;28;44064;-71
2023/08/15 10:26:46;;;;;;;2.30;2.20;;;23.60;77.50;;;;;;5071541;28;44247;-75
2023/08/15 10:29:16;;;;;;;2.20;2.10;;;23.60;77.60;;;;;;5070643;28;43587;-74
2023/08/15 10:31:45;;;;;;;2.37;2.27;;;23.70;77.50;;;;;;5070758;28;43935;-74
2023/08/15 10:34:14;;;;;;;1.80;1.80;;;23.80;77.10;;;;;;5071972;28;43367;-74
2023/08/15 10:36:42;;;;;;;2.40;2.30;;;23.90;76.80;;;;;;5069928;28;43401;-75
2023/08/15 10:39:10;;;;;;;1.93;1.93;;;23.90;76.70;;;;;;5069103;28;43478;-75
2023/08/15 10:41:39;;;;;;;2.23;2.13;;;23.90;76.70;;;;;;5069397;28;44781;-75
2023/08/15 10:44:07;;;;;;;2.20;2.20;;;23.90;76.70;;;;;;5068068;28;44426;-74
2023/08/15 10:46:36;;;;;;;2.20;2.20;;;23.80;77.10;;;;;;5067046;28;43933;-75
2023/08/15 10:49:07;;;;;;;2.30;2.20;;;23.70;77.00;;;;;;5069376;28;43544;-74
2023/08/15 10:51:37;;;;;;;2.17;2.17;;;23.80;77.20;;;;;;5067086;28;43966;-75
2023/08/15 10:54:06;;;;;;;2.27;2.17;;;23.70;77.00;;;;;;5067621;28;43462;-75
2023/08/15 10:56:35;;;;;;;2.10;2.00;;;23.60;77.30;;;;;;5067693;28;43454;-75
2023/08/15 10:59:06;;;;;;;1.77;1.77;;;23.70;77.50;;;;;;5069600;28;44807;-74
2023/08/15 11:01:37;;;;;;;1.80;1.80;;;23.60;77.40;;;;;;5065197;28;45714;-74
2023/08/15 11:04:08;;;;;;;2.10;2.00;;;23.60;77.40;;;;;;5066737;28;44836;-75
2023/08/15 11:06:42;;;;;;;1.97;1.93;;;23.60;77.60;;;;;;5066380;28;43543;-75
2023/08/15 11:09:11;;;;;;;2.00;1.97;;;23.60;77.80;;;;;;5066162;28;43532;-75
2023/08/15 11:11:39;;;;;;;1.93;1.90;;;23.60;78.30;;;;;;5063904;28;46361;-74
2023/08/15 11:14:17;;;;;;;2.33;2.23;;;23.80;77.30;;;;;;5067481;28;43474;-75
2023/08/15 11:16:45;;;;;;;2.20;2.10;;;23.90;76.90;;;;;;5066715;28;43410;-74
2023/08/15 11:19:15;;;;;;;1.80;1.80;;;23.90;76.60;;;;;;5069370;28;44067;-73
2023/08/15 11:21:45;;;;;;;2.23;2.13;;;23.90;76.60;;;;;;5069060;28;43935;-74
2023/08/15 11:24:13;;;;;;;1.80;1.80;;;23.90;76.60;;;;;;5068116;28;43456;-75
2023/08/15 11:26:41;;;;;;;2.00;2.00;;;23.80;76.90;;;;;;5068754;28;44068;-75
2023/08/15 11:29:10;;;;;;;1.90;1.90;;;23.80;77.00;;;;;;5068675;27;43522;-75
2023/08/15 11:31:39;;;;;;;1.90;1.90;;;23.70;77.00;;;;;;5066343;28;45705;-75
2023/08/15 11:34:07;;;;;;;1.80;1.80;;;23.70;77.00;;;;;;5068674;28;43469;-75
2023/08/15 11:36:35;;;;;;;1.80;1.80;;;23.70;77.30;;;;;;5067809;28;43436;-70
2023/08/15 11:39:05;;;;;;;2.10;2.00;;;23.60;77.40;;;;;;5065090;28;43487;-70
2023/08/15 11:41:33;;;;;;;2.10;2.10;;;23.60;77.40;;;;;;5069103;28;43792;-70
2023/08/15 11:44:05;;;;;;;1.63;1.63;;;23.60;77.30;;;;;;5067211;28;44672;-71
2023/08/15 11:46:35;;;;;;;1.90;1.80;;;23.60;77.50;;;;;;5066878;28;43447;-70
2023/08/15 11:49:22;;;;;;;1.70;1.70;;;23.60;77.80;;;;;;5071609;28;43552;-70
2023/08/15 11:51:51;;;;;;;1.73;1.73;;;23.60;77.70;;;;;;5068959;28;43587;-70
2023/08/15 11:54:26;;;;;;;1.60;1.60;;;23.70;77.40;;;;;;5069196;28;43441;-71
2023/08/15 11:56:54;;;;;;;1.73;1.73;;;23.80;77.00;;;;;;5064912;28;43439;-70
2023/08/15 11:59:23;;;;;;;1.70;1.70;;;23.90;76.70;;;;;;5066108;28;43630;-71
2023/08/15 12:01:51;;;;;;;1.83;1.80;;;23.90;76.60;;;;;;5067228;28;43628;-71
2023/08/15 12:04:19;;;;;;;1.60;1.60;;;23.90;76.60;;;;;;5067610;28;44784;-71
2023/08/15 12:06:47;;;;;;;1.60;1.60;;;23.80;76.80;;;;;;5069373;28;43532;-70
2023/08/15 12:09:15;;;;;;;1.80;1.80;;;23.80;77.00;;;;;;5069569;28;43525;-71
2023/08/15 12:11:45;;;;;;;1.73;1.73;;;23.80;77.10;;;;;;5066969;28;43702;-71
2023/08/15 12:14:19;;;;;;;1.80;1.70;;;23.70;77.00;;;;;;5069955;28;44032;-71
2023/08/15 12:16:47;;;;;;;1.93;1.90;;;23.70;77.20;;;;;;5069158;28;43504;-70
2023/08/15 12:19:15;;;;;;;1.60;1.60;;;23.70;77.60;;;;;;5069723;28;44511;-70
2023/08/15 12:21:49;;;;;;;1.70;1.70;;;23.70;77.60;;;;;;5069275;27;43837;-70
2023/08/15 12:24:17;;;;;;;1.60;1.60;;;23.60;77.40;;;;;;5069655;28;43428;-70
2023/08/15 12:26:47;;;;;;;1.70;1.70;;;23.60;77.50;;;;;;5067418;28;43486;-70
2023/08/15 12:29:15;;;;;;;1.70;1.70;;;23.60;77.70;;;;;;5069980;28;43514;-70
2023/08/15 12:31:45;;;;;;;1.70;1.70;;;23.60;77.80;;;;;;5069034;28;43853;-71
2023/08/15 12:34:14;;;;;;;2.00;2.00;;;23.60;77.80;;;;;;5067058;28;43542;-70
2023/08/15 12:36:42;;;;;;;1.60;1.60;;;23.60;77.70;;;;;;5065933;28;43491;-71
2023/08/15 12:39:10;;;;;;;1.60;1.60;;;23.50;77.70;;;;;;5066781;28;44030;-71
2023/08/15 12:41:38;;;;;;;1.83;1.83;;;23.50;78.00;;;;;;5066332;28;43681;-70
2023/08/15 12:44:07;;;;;;;1.43;1.43;;;23.60;78.00;;;;;;5068425;28;43513;-71
2023/08/15 12:46:35;;;;;;;1.70;1.70;;;23.70;77.70;;;;;;5068256;28;43501;-71
2023/08/15 12:49:04;;;;;;;1.70;1.70;;;23.80;77.30;;;;;;5067149;28;44601;-71
2023/08/15 12:51:32;;;;;;;1.57;1.57;;;23.90;76.80;;;;;;5069577;28;43595;-70
2023/08/15 12:54:00;;;;;;;1.63;1.63;;;23.90;76.60;;;;;;5069693;28;44103;-70
2023/08/15 12:56:28;;;;;;;1.60;1.60;;;23.90;76.60;;;;;;5070530;28;43502;-71